Copas, Minnesota
Current Conditions -  °F | °C
As of 6:55 PM on Friday 24 Oct 2014 (Local Time) from KOEO Reporting Station
Clear Clear  
Wind Chill: 54°   Ceiling: Unl
Heat Index: 54°   Visibility: 7mi
Dew Point: 54°   Wind: 5mph
Humidity: 100%   Direction: 160°SSE
Pressure: 29.87"   Gusts: NA
Location:  45.2742°N, 92.8215°W
Report Text: KOEO 242355Z AUTO 16004KT 7SM CLR 12/12 A2987 RMK AO2 T01230123 10169 20123
Loading
Personal Weather Stations






























Interactive Weather Map
Tropical Storm Tracking
New forecast layout! Learn more

10-Day Weather Forecast

Advertisements
Track Severe Weather on mobile